sensor_id;sensor_type;location;lat;lon;timestamp;P1;durP1;ratioP1;P2;durP2;ratioP2
52786;SDS011;38661;53.152;5.846;2023-02-07T00:01:55;8.07;;;4.60;;
52786;SDS011;38661;53.152;5.846;2023-02-07T00:04:21;7.40;;;4.68;;
52786;SDS011;38661;53.152;5.846;2023-02-07T00:06:47;8.30;;;4.93;;
52786;SDS011;38661;53.152;5.846;2023-02-07T00:09:12;8.68;;;4.72;;
52786;SDS011;38661;53.152;5.846;2023-02-07T00:11:39;8.82;;;4.88;;
52786;SDS011;38661;53.152;5.846;2023-02-07T00:14:05;8.95;;;5.10;;
52786;SDS011;38661;53.152;5.846;2023-02-07T00:16:33;9.05;;;5.10;;
52786;SDS011;38661;53.152;5.846;2023-02-07T00:18:59;9.23;;;5.25;;
52786;SDS011;38661;53.152;5.846;2023-02-07T00:21:25;8.70;;;5.00;;
52786;SDS011;38661;53.152;5.846;2023-02-07T00:23:52;17.08;;;5.78;;
52786;SDS011;38661;53.152;5.846;2023-02-07T00:26:18;12.50;;;5.22;;
52786;SDS011;38661;53.152;5.846;2023-02-07T00:28:46;8.85;;;5.03;;
52786;SDS011;38661;53.152;5.846;2023-02-07T00:33:47;10.80;;;5.63;;
52786;SDS011;38661;53.152;5.846;2023-02-07T00:36:16;14.02;;;6.47;;
52786;SDS011;38661;53.152;5.846;2023-02-07T00:38:44;19.23;;;6.20;;
52786;SDS011;38661;53.152;5.846;2023-02-07T00:41:11;17.40;;;6.72;;
52786;SDS011;38661;53.152;5.846;2023-02-07T00:43:39;13.20;;;5.65;;
52786;SDS011;38661;53.152;5.846;2023-02-07T00:46:05;20.55;;;7.60;;
52786;SDS011;38661;53.152;5.846;2023-02-07T00:48:31;19.73;;;7.20;;
52786;SDS011;38661;53.152;5.846;2023-02-07T00:50:57;15.35;;;7.93;;
52786;SDS011;38661;53.152;5.846;2023-02-07T00:53:24;25.70;;;8.52;;
52786;SDS011;38661;53.152;5.846;2023-02-07T00:55:50;21.63;;;8.55;;
52786;SDS011;38661;53.152;5.846;2023-02-07T00:58:16;15.23;;;8.30;;
52786;SDS011;38661;53.152;5.846;2023-02-07T01:00:42;20.98;;;8.27;;
52786;SDS011;38661;53.152;5.846;2023-02-07T01:03:08;28.85;;;8.32;;
52786;SDS011;38661;53.152;5.846;2023-02-07T01:05:34;18.73;;;7.30;;
52786;SDS011;38661;53.152;5.846;2023-02-07T01:07:59;21.10;;;8.10;;
52786;SDS011;38661;53.152;5.846;2023-02-07T01:10:25;23.17;;;8.63;;
52786;SDS011;38661;53.152;5.846;2023-02-07T01:12:51;22.23;;;8.18;;
52786;SDS011;38661;53.152;5.846;2023-02-07T01:15:17;23.13;;;8.18;;
52786;SDS011;38661;53.152;5.846;2023-02-07T01:17:43;23.38;;;7.82;;
52786;SDS011;38661;53.152;5.846;2023-02-07T01:20:10;18.77;;;8.20;;
52786;SDS011;38661;53.152;5.846;2023-02-07T01:22:36;26.08;;;9.15;;
52786;SDS011;38661;53.152;5.846;2023-02-07T01:25:04;29.77;;;9.82;;
52786;SDS011;38661;53.152;5.846;2023-02-07T01:27:31;22.08;;;8.65;;
52786;SDS011;38661;53.152;5.846;2023-02-07T01:29:57;16.73;;;8.30;;
52786;SDS011;38661;53.152;5.846;2023-02-07T01:32:24;22.48;;;8.63;;
52786;SDS011;38661;53.152;5.846;2023-02-07T01:34:49;28.80;;;10.75;;
52786;SDS011;38661;53.152;5.846;2023-02-07T01:37:15;20.83;;;9.70;;
52786;SDS011;38661;53.152;5.846;2023-02-07T01:39:41;22.60;;;9.50;;
52786;SDS011;38661;53.152;5.846;2023-02-07T01:42:11;21.60;;;9.05;;
52786;SDS011;38661;53.152;5.846;2023-02-07T01:47:19;20.17;;;10.45;;
52786;SDS011;38661;53.152;5.846;2023-02-07T01:49:46;23.27;;;9.75;;
52786;SDS011;38661;53.152;5.846;2023-02-07T01:52:31;16.85;;;7.82;;
52786;SDS011;38661;53.152;5.846;2023-02-07T01:55:02;27.65;;;9.93;;
52786;SDS011;38661;53.152;5.846;2023-02-07T01:57:30;21.45;;;9.65;;
52786;SDS011;38661;53.152;5.846;2023-02-07T01:59:56;18.40;;;9.02;;
52786;SDS011;38661;53.152;5.846;2023-02-07T02:02:24;18.85;;;8.93;;
52786;SDS011;38661;53.152;5.846;2023-02-07T02:04:55;29.30;;;10.02;;
52786;SDS011;38661;53.152;5.846;2023-02-07T02:07:22;20.05;;;9.40;;
52786;SDS011;38661;53.152;5.846;2023-02-07T02:09:49;19.15;;;9.77;;
52786;SDS011;38661;53.152;5.846;2023-02-07T02:18:07;23.90;;;9.70;;
52786;SDS011;38661;53.152;5.846;2023-02-07T02:31:53;23.27;;;10.60;;
52786;SDS011;38661;53.152;5.846;2023-02-07T02:40:02;24.43;;;10.13;;
52786;SDS011;38661;53.152;5.846;2023-02-07T02:42:34;28.63;;;10.70;;
52786;SDS011;38661;53.152;5.846;2023-02-07T02:45:03;20.08;;;9.07;;
52786;SDS011;38661;53.152;5.846;2023-02-07T02:50:03;15.75;;;9.75;;
52786;SDS011;38661;53.152;5.846;2023-02-07T02:52:43;17.50;;;9.63;;
52786;SDS011;38661;53.152;5.846;2023-02-07T02:55:08;22.63;;;8.90;;
52786;SDS011;38661;53.152;5.846;2023-02-07T02:57:39;15.65;;;8.70;;
52786;SDS011;38661;53.152;5.846;2023-02-07T03:11:08;24.75;;;10.95;;
52786;SDS011;38661;53.152;5.846;2023-02-07T03:18:53;29.63;;;11.93;;
52786;SDS011;38661;53.152;5.846;2023-02-07T03:21:26;27.63;;;11.63;;
52786;SDS011;38661;53.152;5.846;2023-02-07T03:24:05;33.13;;;13.65;;
52786;SDS011;38661;53.152;5.846;2023-02-07T03:26:43;23.20;;;11.85;;
52786;SDS011;38661;53.152;5.846;2023-02-07T03:29:12;19.30;;;12.00;;
52786;SDS011;38661;53.152;5.846;2023-02-07T03:31:41;26.05;;;11.77;;
52786;SDS011;38661;53.152;5.846;2023-02-07T03:34:12;25.75;;;12.65;;
52786;SDS011;38661;53.152;5.846;2023-02-07T03:36:52;25.90;;;12.85;;
52786;SDS011;38661;53.152;5.846;2023-02-07T03:39:22;23.00;;;11.68;;
52786;SDS011;38661;53.152;5.846;2023-02-07T03:41:53;25.77;;;12.23;;
52786;SDS011;38661;53.152;5.846;2023-02-07T03:44:22;28.13;;;12.70;;
52786;SDS011;38661;53.152;5.846;2023-02-07T03:46:50;31.08;;;13.73;;
52786;SDS011;38661;53.152;5.846;2023-02-07T03:49:16;23.92;;;12.73;;
52786;SDS011;38661;53.152;5.846;2023-02-07T03:51:42;26.08;;;12.77;;
52786;SDS011;38661;53.152;5.846;2023-02-07T03:54:08;26.45;;;13.60;;
52786;SDS011;38661;53.152;5.846;2023-02-07T03:56:35;28.90;;;14.27;;
52786;SDS011;38661;53.152;5.846;2023-02-07T03:59:01;29.13;;;14.60;;
52786;SDS011;38661;53.152;5.846;2023-02-07T04:01:27;28.33;;;13.15;;
52786;SDS011;38661;53.152;5.846;2023-02-07T04:03:52;21.13;;;12.35;;
52786;SDS011;38661;53.152;5.846;2023-02-07T04:06:18;29.70;;;13.45;;
52786;SDS011;38661;53.152;5.846;2023-02-07T04:08:44;25.27;;;12.98;;
52786;SDS011;38661;53.152;5.846;2023-02-07T04:11:10;23.70;;;13.32;;
52786;SDS011;38661;53.152;5.846;2023-02-07T04:13:36;22.35;;;12.70;;
52786;SDS011;38661;53.152;5.846;2023-02-07T04:16:03;29.38;;;13.93;;
52786;SDS011;38661;53.152;5.846;2023-02-07T04:18:29;30.52;;;14.88;;
52786;SDS011;38661;53.152;5.846;2023-02-07T04:21:02;33.67;;;16.48;;
52786;SDS011;38661;53.152;5.846;2023-02-07T04:23:29;32.42;;;15.90;;
52786;SDS011;38661;53.152;5.846;2023-02-07T04:25:55;31.65;;;16.33;;
52786;SDS011;38661;53.152;5.846;2023-02-07T04:28:21;34.10;;;16.42;;
52786;SDS011;38661;53.152;5.846;2023-02-07T04:30:47;36.08;;;16.92;;
52786;SDS011;38661;53.152;5.846;2023-02-07T04:33:12;33.58;;;15.90;;
52786;SDS011;38661;53.152;5.846;2023-02-07T04:35:38;35.83;;;17.42;;
52786;SDS011;38661;53.152;5.846;2023-02-07T04:38:04;41.22;;;19.20;;
52786;SDS011;38661;53.152;5.846;2023-02-07T04:40:30;42.45;;;18.60;;
52786;SDS011;38661;53.152;5.846;2023-02-07T04:42:56;37.50;;;17.98;;
52786;SDS011;38661;53.152;5.846;2023-02-07T04:45:21;34.95;;;17.27;;
52786;SDS011;38661;53.152;5.846;2023-02-07T04:47:47;38.60;;;18.92;;
52786;SDS011;38661;53.152;5.846;2023-02-07T04:50:13;37.00;;;18.17;;
52786;SDS011;38661;53.152;5.846;2023-02-07T04:52:38;42.65;;;18.70;;
52786;SDS011;38661;53.152;5.846;2023-02-07T04:55:07;35.90;;;18.27;;
52786;SDS011;38661;53.152;5.846;2023-02-07T04:57:33;42.10;;;18.98;;
52786;SDS011;38661;53.152;5.846;2023-02-07T04:59:59;38.78;;;18.63;;
52786;SDS011;38661;53.152;5.846;2023-02-07T05:02:25;38.58;;;17.73;;
52786;SDS011;38661;53.152;5.846;2023-02-07T05:04:51;35.63;;;17.55;;
52786;SDS011;38661;53.152;5.846;2023-02-07T05:07:17;31.80;;;16.30;;
52786;SDS011;38661;53.152;5.846;2023-02-07T05:09:42;32.08;;;18.70;;
52786;SDS011;38661;53.152;5.846;2023-02-07T05:12:08;34.22;;;17.80;;
52786;SDS011;38661;53.152;5.846;2023-02-07T05:14:34;40.38;;;19.55;;
52786;SDS011;38661;53.152;5.846;2023-02-07T05:16:59;39.53;;;17.50;;
52786;SDS011;38661;53.152;5.846;2023-02-07T05:19:25;35.95;;;17.63;;
52786;SDS011;38661;53.152;5.846;2023-02-07T05:21:51;34.65;;;17.10;;
52786;SDS011;38661;53.152;5.846;2023-02-07T05:24:17;38.42;;;18.15;;
52786;SDS011;38661;53.152;5.846;2023-02-07T05:26:42;35.25;;;17.77;;
52786;SDS011;38661;53.152;5.846;2023-02-07T05:29:08;40.83;;;16.30;;
52786;SDS011;38661;53.152;5.846;2023-02-07T05:31:37;37.20;;;17.88;;
52786;SDS011;38661;53.152;5.846;2023-02-07T05:34:22;36.75;;;17.83;;
52786;SDS011;38661;53.152;5.846;2023-02-07T05:36:47;41.05;;;19.00;;
52786;SDS011;38661;53.152;5.846;2023-02-07T05:39:13;30.98;;;15.25;;
52786;SDS011;38661;53.152;5.846;2023-02-07T05:41:39;30.52;;;16.10;;
52786;SDS011;38661;53.152;5.846;2023-02-07T05:44:04;32.78;;;16.13;;
52786;SDS011;38661;53.152;5.846;2023-02-07T05:46:31;32.30;;;15.90;;
52786;SDS011;38661;53.152;5.846;2023-02-07T05:48:57;27.30;;;14.95;;
52786;SDS011;38661;53.152;5.846;2023-02-07T05:51:22;29.52;;;15.32;;
52786;SDS011;38661;53.152;5.846;2023-02-07T05:53:49;28.58;;;14.85;;
52786;SDS011;38661;53.152;5.846;2023-02-07T05:56:14;29.17;;;17.45;;
52786;SDS011;38661;53.152;5.846;2023-02-07T05:58:40;33.42;;;17.02;;
52786;SDS011;38661;53.152;5.846;2023-02-07T06:01:06;26.88;;;16.15;;
52786;SDS011;38661;53.152;5.846;2023-02-07T06:03:32;28.85;;;16.75;;
52786;SDS011;38661;53.152;5.846;2023-02-07T06:05:57;26.10;;;16.40;;
52786;SDS011;38661;53.152;5.846;2023-02-07T06:08:23;26.85;;;14.98;;
52786;SDS011;38661;53.152;5.846;2023-02-07T06:10:49;31.80;;;16.85;;
52786;SDS011;38661;53.152;5.846;2023-02-07T06:13:14;28.13;;;15.82;;
52786;SDS011;38661;53.152;5.846;2023-02-07T06:15:40;30.98;;;17.30;;
52786;SDS011;38661;53.152;5.846;2023-02-07T06:18:06;29.58;;;16.40;;
52786;SDS011;38661;53.152;5.846;2023-02-07T06:20:31;26.75;;;15.85;;
52786;SDS011;38661;53.152;5.846;2023-02-07T06:22:57;30.77;;;15.57;;
52786;SDS011;38661;53.152;5.846;2023-02-07T06:25:23;28.63;;;15.20;;
52786;SDS011;38661;53.152;5.846;2023-02-07T06:27:48;27.92;;;17.20;;
52786;SDS011;38661;53.152;5.846;2023-02-07T06:30:14;27.40;;;16.27;;
52786;SDS011;38661;53.152;5.846;2023-02-07T06:32:40;28.80;;;15.95;;
52786;SDS011;38661;53.152;5.846;2023-02-07T06:35:06;24.73;;;15.85;;
52786;SDS011;38661;53.152;5.846;2023-02-07T06:37:32;27.58;;;14.57;;
52786;SDS011;38661;53.152;5.846;2023-02-07T06:39:58;29.83;;;16.77;;
52786;SDS011;38661;53.152;5.846;2023-02-07T06:42:24;29.35;;;16.58;;
52786;SDS011;38661;53.152;5.846;2023-02-07T06:44:49;30.27;;;16.80;;
52786;SDS011;38661;53.152;5.846;2023-02-07T06:47:15;29.30;;;16.50;;
52786;SDS011;38661;53.152;5.846;2023-02-07T06:49:43;33.60;;;18.15;;
52786;SDS011;38661;53.152;5.846;2023-02-07T06:52:09;27.20;;;16.25;;
52786;SDS011;38661;53.152;5.846;2023-02-07T06:54:35;26.20;;;15.05;;
52786;SDS011;38661;53.152;5.846;2023-02-07T06:57:01;30.73;;;17.25;;
52786;SDS011;38661;53.152;5.846;2023-02-07T06:59:27;33.35;;;19.00;;
52786;SDS011;38661;53.152;5.846;2023-02-07T07:01:52;35.13;;;18.27;;
52786;SDS011;38661;53.152;5.846;2023-02-07T07:04:18;35.13;;;17.95;;
52786;SDS011;38661;53.152;5.846;2023-02-07T07:06:44;28.05;;;17.75;;
52786;SDS011;38661;53.152;5.846;2023-02-07T07:09:10;31.88;;;18.40;;
52786;SDS011;38661;53.152;5.846;2023-02-07T07:11:36;33.58;;;18.42;;
52786;SDS011;38661;53.152;5.846;2023-02-07T07:14:07;29.38;;;17.77;;
52786;SDS011;38661;53.152;5.846;2023-02-07T07:16:33;31.45;;;17.35;;
52786;SDS011;38661;53.152;5.846;2023-02-07T07:18:59;32.40;;;18.13;;
52786;SDS011;38661;53.152;5.846;2023-02-07T07:21:25;31.40;;;18.83;;
52786;SDS011;38661;53.152;5.846;2023-02-07T07:23:52;33.13;;;17.40;;
52786;SDS011;38661;53.152;5.846;2023-02-07T07:26:18;32.05;;;18.45;;
52786;SDS011;38661;53.152;5.846;2023-02-07T07:28:43;40.42;;;18.98;;
52786;SDS011;38661;53.152;5.846;2023-02-07T07:31:09;35.92;;;17.88;;
52786;SDS011;38661;53.152;5.846;2023-02-07T07:33:35;34.58;;;19.38;;
52786;SDS011;38661;53.152;5.846;2023-02-07T07:36:02;35.50;;;19.42;;
52786;SDS011;38661;53.152;5.846;2023-02-07T07:38:28;32.67;;;20.20;;
52786;SDS011;38661;53.152;5.846;2023-02-07T07:40:54;39.33;;;24.75;;
52786;SDS011;38661;53.152;5.846;2023-02-07T07:43:20;37.90;;;19.95;;
52786;SDS011;38661;53.152;5.846;2023-02-07T07:45:50;37.60;;;20.58;;
52786;SDS011;38661;53.152;5.846;2023-02-07T07:48:17;36.83;;;21.13;;
52786;SDS011;38661;53.152;5.846;2023-02-07T07:50:44;42.38;;;24.00;;
52786;SDS011;38661;53.152;5.846;2023-02-07T07:53:09;42.05;;;26.25;;
52786;SDS011;38661;53.152;5.846;2023-02-07T07:55:35;39.08;;;23.05;;
52786;SDS011;38661;53.152;5.846;2023-02-07T07:58:02;40.25;;;25.33;;
52786;SDS011;38661;53.152;5.846;2023-02-07T08:00:28;38.60;;;20.90;;
52786;SDS011;38661;53.152;5.846;2023-02-07T08:02:53;31.45;;;18.83;;
52786;SDS011;38661;53.152;5.846;2023-02-07T08:05:19;31.35;;;18.50;;
52786;SDS011;38661;53.152;5.846;2023-02-07T08:07:45;40.63;;;20.75;;
52786;SDS011;38661;53.152;5.846;2023-02-07T08:10:11;35.88;;;20.88;;
52786;SDS011;38661;53.152;5.846;2023-02-07T08:12:36;40.40;;;22.30;;
52786;SDS011;38661;53.152;5.846;2023-02-07T08:15:02;45.10;;;23.60;;
52786;SDS011;38661;53.152;5.846;2023-02-07T08:17:28;41.10;;;22.48;;
52786;SDS011;38661;53.152;5.846;2023-02-07T08:19:54;36.47;;;20.92;;
52786;SDS011;38661;53.152;5.846;2023-02-07T08:22:20;32.30;;;19.10;;
52786;SDS011;38661;53.152;5.846;2023-02-07T08:24:45;46.58;;;24.30;;
52786;SDS011;38661;53.152;5.846;2023-02-07T08:27:11;35.63;;;21.15;;
52786;SDS011;38661;53.152;5.846;2023-02-07T08:29:37;31.35;;;19.98;;
52786;SDS011;38661;53.152;5.846;2023-02-07T08:32:02;40.20;;;20.40;;
52786;SDS011;38661;53.152;5.846;2023-02-07T08:34:29;38.92;;;21.63;;
52786;SDS011;38661;53.152;5.846;2023-02-07T08:37:01;36.55;;;20.67;;
52786;SDS011;38661;53.152;5.846;2023-02-07T08:39:28;35.03;;;22.42;;
52786;SDS011;38661;53.152;5.846;2023-02-07T08:41:54;38.67;;;20.60;;
52786;SDS011;38661;53.152;5.846;2023-02-07T08:44:19;35.15;;;20.27;;
52786;SDS011;38661;53.152;5.846;2023-02-07T08:46:45;37.08;;;19.23;;
52786;SDS011;38661;53.152;5.846;2023-02-07T08:49:11;34.60;;;19.17;;
52786;SDS011;38661;53.152;5.846;2023-02-07T08:51:36;37.05;;;18.98;;
52786;SDS011;38661;53.152;5.846;2023-02-07T08:54:03;37.33;;;18.95;;
52786;SDS011;38661;53.152;5.846;2023-02-07T08:56:29;33.13;;;18.02;;
52786;SDS011;38661;53.152;5.846;2023-02-07T08:58:55;29.30;;;18.42;;
52786;SDS011;38661;53.152;5.846;2023-02-07T09:01:21;32.85;;;19.45;;
52786;SDS011;38661;53.152;5.846;2023-02-07T09:03:47;29.90;;;19.05;;
52786;SDS011;38661;53.152;5.846;2023-02-07T09:06:12;34.17;;;19.17;;
52786;SDS011;38661;53.152;5.846;2023-02-07T09:08:38;29.80;;;18.60;;
52786;SDS011;38661;53.152;5.846;2023-02-07T09:11:04;35.53;;;19.77;;
52786;SDS011;38661;53.152;5.846;2023-02-07T09:13:29;33.83;;;18.98;;
52786;SDS011;38661;53.152;5.846;2023-02-07T09:15:55;31.95;;;17.65;;
52786;SDS011;38661;53.152;5.846;2023-02-07T09:18:23;32.92;;;18.65;;
52786;SDS011;38661;53.152;5.846;2023-02-07T09:20:49;29.08;;;17.98;;
52786;SDS011;38661;53.152;5.846;2023-02-07T09:23:15;31.50;;;18.38;;
52786;SDS011;38661;53.152;5.846;2023-02-07T09:25:41;33.20;;;18.05;;
52786;SDS011;38661;53.152;5.846;2023-02-07T09:28:07;32.08;;;18.52;;
52786;SDS011;38661;53.152;5.846;2023-02-07T09:30:33;32.03;;;19.73;;
52786;SDS011;38661;53.152;5.846;2023-02-07T09:32:59;33.20;;;19.13;;
52786;SDS011;38661;53.152;5.846;2023-02-07T09:35:25;27.77;;;17.75;;
52786;SDS011;38661;53.152;5.846;2023-02-07T09:37:52;32.50;;;19.63;;
52786;SDS011;38661;53.152;5.846;2023-02-07T09:40:18;27.95;;;17.25;;
52786;SDS011;38661;53.152;5.846;2023-02-07T09:42:56;32.58;;;19.48;;
52786;SDS011;38661;53.152;5.846;2023-02-07T09:45:30;30.98;;;18.40;;
52786;SDS011;38661;53.152;5.846;2023-02-07T09:48:15;33.15;;;17.65;;
52786;SDS011;38661;53.152;5.846;2023-02-07T09:50:49;33.67;;;18.20;;
52786;SDS011;38661;53.152;5.846;2023-02-07T09:55:58;31.23;;;18.02;;
52786;SDS011;38661;53.152;5.846;2023-02-07T10:01:03;23.95;;;14.80;;
52786;SDS011;38661;53.152;5.846;2023-02-07T10:03:41;33.63;;;19.85;;
52786;SDS011;38661;53.152;5.846;2023-02-07T10:06:15;37.22;;;20.10;;
52786;SDS011;38661;53.152;5.846;2023-02-07T10:14:11;29.13;;;18.42;;
52786;SDS011;38661;53.152;5.846;2023-02-07T10:22:52;33.72;;;18.75;;
52786;SDS011;38661;53.152;5.846;2023-02-07T10:25:19;30.40;;;18.05;;
52786;SDS011;38661;53.152;5.846;2023-02-07T10:30:34;34.10;;;19.60;;
52786;SDS011;38661;53.152;5.846;2023-02-07T10:33:06;34.90;;;20.00;;
52786;SDS011;38661;53.152;5.846;2023-02-07T10:35:43;32.28;;;18.48;;
52786;SDS011;38661;53.152;5.846;2023-02-07T10:38:32;31.58;;;18.38;;
52786;SDS011;38661;53.152;5.846;2023-02-07T10:41:03;29.27;;;18.20;;
52786;SDS011;38661;53.152;5.846;2023-02-07T10:43:36;31.73;;;18.08;;
52786;SDS011;38661;53.152;5.846;2023-02-07T10:46:07;27.58;;;18.42;;
52786;SDS011;38661;53.152;5.846;2023-02-07T10:48:35;32.85;;;20.15;;
52786;SDS011;38661;53.152;5.846;2023-02-07T10:54:10;31.85;;;19.27;;
52786;SDS011;38661;53.152;5.846;2023-02-07T10:56:59;33.30;;;20.27;;
52786;SDS011;38661;53.152;5.846;2023-02-07T11:01:54;30.73;;;19.65;;
52786;SDS011;38661;53.152;5.846;2023-02-07T11:04:41;32.88;;;21.20;;
52786;SDS011;38661;53.152;5.846;2023-02-07T11:07:13;31.73;;;20.13;;
52786;SDS011;38661;53.152;5.846;2023-02-07T11:09:40;36.22;;;20.83;;
52786;SDS011;38661;53.152;5.846;2023-02-07T11:12:18;36.10;;;20.42;;
52786;SDS011;38661;53.152;5.846;2023-02-07T11:15:03;34.90;;;21.45;;
52786;SDS011;38661;53.152;5.846;2023-02-07T11:17:32;33.40;;;19.65;;
52786;SDS011;38661;53.152;5.846;2023-02-07T11:20:05;32.78;;;19.85;;
52786;SDS011;38661;53.152;5.846;2023-02-07T11:22:37;26.25;;;17.73;;
52786;SDS011;38661;53.152;5.846;2023-02-07T11:25:05;32.47;;;19.48;;
52786;SDS011;38661;53.152;5.846;2023-02-07T11:27:40;30.05;;;20.38;;
52786;SDS011;38661;53.152;5.846;2023-02-07T11:30:08;31.88;;;20.40;;
52786;SDS011;38661;53.152;5.846;2023-02-07T11:32:40;30.70;;;19.02;;
52786;SDS011;38661;53.152;5.846;2023-02-07T11:35:07;33.00;;;19.88;;
52786;SDS011;38661;53.152;5.846;2023-02-07T11:38:01;32.45;;;19.85;;
52786;SDS011;38661;53.152;5.846;2023-02-07T11:40:37;31.98;;;20.77;;
52786;SDS011;38661;53.152;5.846;2023-02-07T11:45:41;31.08;;;18.80;;
52786;SDS011;38661;53.152;5.846;2023-02-07T11:48:17;29.48;;;19.02;;
52786;SDS011;38661;53.152;5.846;2023-02-07T11:50:54;30.20;;;19.90;;
52786;SDS011;38661;53.152;5.846;2023-02-07T11:53:23;28.30;;;17.45;;
52786;SDS011;38661;53.152;5.846;2023-02-07T11:55:50;29.00;;;19.15;;
52786;SDS011;38661;53.152;5.846;2023-02-07T11:58:31;37.20;;;19.13;;
52786;SDS011;38661;53.152;5.846;2023-02-07T12:00:59;25.77;;;16.88;;
52786;SDS011;38661;53.152;5.846;2023-02-07T12:03:27;28.80;;;17.50;;
52786;SDS011;38661;53.152;5.846;2023-02-07T12:06:04;26.70;;;18.13;;
52786;SDS011;38661;53.152;5.846;2023-02-07T12:08:32;31.65;;;19.77;;
52786;SDS011;38661;53.152;5.846;2023-02-07T12:11:04;27.63;;;17.42;;
52786;SDS011;38661;53.152;5.846;2023-02-07T12:13:45;30.75;;;18.70;;
52786;SDS011;38661;53.152;5.846;2023-02-07T12:16:20;29.50;;;18.40;;
52786;SDS011;38661;53.152;5.846;2023-02-07T12:19:06;29.25;;;18.55;;
52786;SDS011;38661;53.152;5.846;2023-02-07T12:25:19;27.60;;;18.23;;
52786;SDS011;38661;53.152;5.846;2023-02-07T12:27:44;27.17;;;18.55;;
52786;SDS011;38661;53.152;5.846;2023-02-07T12:30:17;32.97;;;19.35;;
52786;SDS011;38661;53.152;5.846;2023-02-07T12:38:53;26.13;;;18.20;;
52786;SDS011;38661;53.152;5.846;2023-02-07T12:44:08;30.58;;;18.65;;
52786;SDS011;38661;53.152;5.846;2023-02-07T12:57:41;29.27;;;17.85;;
52786;SDS011;38661;53.152;5.846;2023-02-07T13:00:34;25.48;;;19.63;;
52786;SDS011;38661;53.152;5.846;2023-02-07T13:03:18;32.03;;;19.33;;
52786;SDS011;38661;53.152;5.846;2023-02-07T13:06:00;30.90;;;18.92;;
52786;SDS011;38661;53.152;5.846;2023-02-07T13:14:39;33.10;;;19.52;;
52786;SDS011;38661;53.152;5.846;2023-02-07T13:17:28;30.30;;;19.77;;
52786;SDS011;38661;53.152;5.846;2023-02-07T13:25:03;32.08;;;19.35;;
52786;SDS011;38661;53.152;5.846;2023-02-07T13:30:04;29.95;;;19.65;;
52786;SDS011;38661;53.152;5.846;2023-02-07T13:32:30;30.85;;;20.92;;
52786;SDS011;38661;53.152;5.846;2023-02-07T13:34:58;29.30;;;18.88;;
52786;SDS011;38661;53.152;5.846;2023-02-07T13:37:38;27.52;;;19.30;;
52786;SDS011;38661;53.152;5.846;2023-02-07T13:45:49;31.45;;;20.70;;
52786;SDS011;38661;53.152;5.846;2023-02-07T13:51:16;30.85;;;20.25;;
52786;SDS011;38661;53.152;5.846;2023-02-07T13:54:02;29.35;;;20.85;;
52786;SDS011;38661;53.152;5.846;2023-02-07T13:56:37;31.10;;;20.50;;
52786;SDS011;38661;53.152;5.846;2023-02-07T14:02:28;29.35;;;19.27;;
52786;SDS011;38661;53.152;5.846;2023-02-07T14:04:57;26.88;;;18.60;;
52786;SDS011;38661;53.152;5.846;2023-02-07T14:07:35;29.60;;;19.85;;
52786;SDS011;38661;53.152;5.846;2023-02-07T14:10:02;28.80;;;18.92;;
52786;SDS011;38661;53.152;5.846;2023-02-07T14:12:33;27.00;;;18.48;;
52786;SDS011;38661;53.152;5.846;2023-02-07T14:18:31;25.75;;;17.77;;
52786;SDS011;38661;53.152;5.846;2023-02-07T14:26:41;25.85;;;16.35;;
52786;SDS011;38661;53.152;5.846;2023-02-07T14:31:50;21.65;;;15.45;;
52786;SDS011;38661;53.152;5.846;2023-02-07T14:34:56;21.08;;;14.80;;
52786;SDS011;38661;53.152;5.846;2023-02-07T14:40:22;22.85;;;14.57;;
52786;SDS011;38661;53.152;5.846;2023-02-07T14:53:55;20.88;;;13.45;;
52786;SDS011;38661;53.152;5.846;2023-02-07T14:56:36;22.00;;;12.77;;
52786;SDS011;38661;53.152;5.846;2023-02-07T14:59:12;18.02;;;11.70;;
52786;SDS011;38661;53.152;5.846;2023-02-07T15:01:45;17.33;;;12.77;;
52786;SDS011;38661;53.152;5.846;2023-02-07T15:04:11;18.10;;;11.38;;
52786;SDS011;38661;53.152;5.846;2023-02-07T15:06:41;20.73;;;12.43;;
52786;SDS011;38661;53.152;5.846;2023-02-07T15:09:24;18.92;;;12.30;;
52786;SDS011;38661;53.152;5.846;2023-02-07T15:11:51;20.17;;;12.10;;
52786;SDS011;38661;53.152;5.846;2023-02-07T15:16:54;18.10;;;11.80;;
52786;SDS011;38661;53.152;5.846;2023-02-07T15:19:41;20.33;;;12.35;;
52786;SDS011;38661;53.152;5.846;2023-02-07T15:22:06;22.38;;;12.98;;
52786;SDS011;38661;53.152;5.846;2023-02-07T15:24:39;20.55;;;12.95;;
52786;SDS011;38661;53.152;5.846;2023-02-07T15:27:17;18.50;;;11.90;;
52786;SDS011;38661;53.152;5.846;2023-02-07T15:29:55;23.60;;;13.80;;
52786;SDS011;38661;53.152;5.846;2023-02-07T15:32:29;16.75;;;11.25;;
52786;SDS011;38661;53.152;5.846;2023-02-07T15:35:05;23.30;;;14.23;;
52786;SDS011;38661;53.152;5.846;2023-02-07T15:37:47;17.80;;;12.43;;
52786;SDS011;38661;53.152;5.846;2023-02-07T15:40:17;26.15;;;14.65;;
52786;SDS011;38661;53.152;5.846;2023-02-07T15:42:51;87.82;;;63.08;;
52786;SDS011;38661;53.152;5.846;2023-02-07T15:45:25;28.95;;;22.52;;
52786;SDS011;38661;53.152;5.846;2023-02-07T15:48:02;16.80;;;11.95;;
52786;SDS011;38661;53.152;5.846;2023-02-07T15:50:33;16.45;;;11.82;;
52786;SDS011;38661;53.152;5.846;2023-02-07T15:53:01;29.23;;;19.17;;
52786;SDS011;38661;53.152;5.846;2023-02-07T15:55:42;47.80;;;38.92;;
52786;SDS011;38661;53.152;5.846;2023-02-07T15:58:53;28.38;;;20.67;;
52786;SDS011;38661;53.152;5.846;2023-02-07T16:01:03;22.50;;;14.40;;
52786;SDS011;38661;53.152;5.846;2023-02-07T16:03:37;19.23;;;13.65;;
52786;SDS011;38661;53.152;5.846;2023-02-07T16:06:15;22.25;;;14.45;;
52786;SDS011;38661;53.152;5.846;2023-02-07T16:08:42;24.45;;;17.25;;
52786;SDS011;38661;53.152;5.846;2023-02-07T16:13:48;30.60;;;21.60;;
52786;SDS011;38661;53.152;5.846;2023-02-07T16:18:45;62.42;;;47.80;;
52786;SDS011;38661;53.152;5.846;2023-02-07T16:21:13;32.92;;;23.10;;
52786;SDS011;38661;53.152;5.846;2023-02-07T16:23:48;37.67;;;27.70;;
52786;SDS011;38661;53.152;5.846;2023-02-07T16:26:17;25.08;;;16.00;;
52786;SDS011;38661;53.152;5.846;2023-02-07T16:28:45;22.10;;;15.43;;
52786;SDS011;38661;53.152;5.846;2023-02-07T16:31:12;25.55;;;16.30;;
52786;SDS011;38661;53.152;5.846;2023-02-07T16:33:37;25.30;;;16.67;;
52786;SDS011;38661;53.152;5.846;2023-02-07T16:36:04;36.03;;;20.73;;
52786;SDS011;38661;53.152;5.846;2023-02-07T16:38:30;36.63;;;21.63;;
52786;SDS011;38661;53.152;5.846;2023-02-07T16:40:56;30.90;;;20.55;;
52786;SDS011;38661;53.152;5.846;2023-02-07T16:43:28;43.25;;;26.55;;
52786;SDS011;38661;53.152;5.846;2023-02-07T16:46:02;44.20;;;28.08;;
52786;SDS011;38661;53.152;5.846;2023-02-07T16:48:28;35.42;;;22.83;;
52786;SDS011;38661;53.152;5.846;2023-02-07T16:50:54;27.27;;;16.95;;
52786;SDS011;38661;53.152;5.846;2023-02-07T16:53:21;26.38;;;17.67;;
52786;SDS011;38661;53.152;5.846;2023-02-07T16:55:49;32.58;;;17.75;;
52786;SDS011;38661;53.152;5.846;2023-02-07T16:58:21;26.70;;;17.10;;
52786;SDS011;38661;53.152;5.846;2023-02-07T17:00:50;27.90;;;20.33;;
52786;SDS011;38661;53.152;5.846;2023-02-07T17:03:17;64.30;;;39.22;;
52786;SDS011;38661;53.152;5.846;2023-02-07T17:05:43;47.67;;;32.03;;
52786;SDS011;38661;53.152;5.846;2023-02-07T17:08:12;35.10;;;24.73;;
52786;SDS011;38661;53.152;5.846;2023-02-07T17:10:39;24.45;;;16.08;;
52786;SDS011;38661;53.152;5.846;2023-02-07T17:13:12;22.35;;;13.95;;